powered by Meteolive.it
Dati meteo   Attuali  Passati Ogni 3 ore 7 Giorni 15 Giorni Avvisi Meteo Mappe meteo
Roma / Urbe, Italy
Alba: 6:04 AM UTC1
Tramonto: 6:27 PM UTC1
 Lat: 41.95N, Lon: 12.50E
ICAO Usato: LIRU
Condizioni Meteo Attuali Aggiornate: 25.03.2017 alle 17:50 LT
Quasi Sereno
Quasi Sereno
N/D
N/D
Temp: 18°C
Umidita': 60%
Direz/Vel. Vento: SSW 09 KTS
Pressione: 1018 hPa
Punto di rugiada: 10°C
Temperatura percepita: 18°C
Visibilitą: >10 KM (ottima)
Temperatura percepita in
presenza di vento (Wind Chill)
:
18°C
T. max (ultime 24 ore): 23°C
T. min (ultime 24 ore): 10°C


METAR ORIGINALE
LIRU 251550Z 24009KT CAVOK 18/10 Q1018